Time;durP1;ratioP1;P1;durP2;ratioP2;P2;SDS_P1;SDS_P2;PMS_P1;PMS_P2;Temp;Humidity;BMP_temperature;BMP_pressure;BME280_temperature;BME280_humidity;BME280_pressure;Samples;Min_cycle;Max_cycle;Signal;HPM_P1;HPM_P2
2022/07/09 00:00:33;;;;;;;3.72;1.13;;;18.20;69.00;;;;;;5055914;28;20067;-63
2022/07/09 00:03:00;;;;;;;3.95;1.00;;;18.20;69.20;;;;;;5056571;28;20055;-62
2022/07/09 00:05:30;;;;;;;2.55;1.00;;;18.20;69.20;;;;;;5057930;28;20050;-61
2022/07/09 00:07:56;;;;;;;2.72;1.20;;;18.20;69.30;;;;;;5060472;28;20662;-66
2022/07/09 00:10:23;;;;;;;3.75;1.23;;;18.20;69.40;;;;;;5057534;28;20076;-61
2022/07/09 00:12:50;;;;;;;2.78;1.00;;;18.20;69.40;;;;;;5057798;28;20049;-63
2022/07/09 00:15:17;;;;;;;2.25;1.00;;;18.20;69.50;;;;;;5057449;28;20060;-61
2022/07/09 00:17:44;;;;;;;5.63;1.20;;;18.20;69.40;;;;;;5057769;28;20049;-62
2022/07/09 00:20:12;;;;;;;2.38;0.90;;;18.20;69.40;;;;;;5059828;28;20663;-64
2022/07/09 00:22:40;;;;;;;3.70;1.20;;;18.20;69.40;;;;;;5055625;28;20060;-64
2022/07/09 00:25:08;;;;;;;4.65;1.30;;;18.30;69.30;;;;;;5059068;28;20454;-64
2022/07/09 00:27:35;;;;;;;3.55;1.17;;;18.20;69.30;;;;;;5045785;28;20045;-62
2022/07/09 00:30:02;;;;;;;3.38;1.00;;;18.30;69.40;;;;;;5044235;28;20049;-63
2022/07/09 00:32:29;;;;;;;4.25;1.23;;;18.20;69.40;;;;;;5055301;28;20053;-62
2022/07/09 00:34:56;;;;;;;2.95;1.50;;;18.20;69.40;;;;;;5054463;28;20128;-65
2022/07/09 00:37:23;;;;;;;5.22;1.20;;;18.20;69.40;;;;;;5057968;28;20052;-63
2022/07/09 00:39:51;;;;;;;7.43;1.13;;;18.20;69.60;;;;;;5057325;28;20052;-62
2022/07/09 00:42:18;;;;;;;1.67;0.82;;;18.10;69.70;;;;;;5058425;28;20067;-62
2022/07/09 00:44:46;;;;;;;3.63;1.20;;;18.10;69.60;;;;;;5054915;28;20130;-63
2022/07/09 00:47:13;;;;;;;3.42;1.10;;;18.10;69.70;;;;;;5037718;28;20041;-63
2022/07/09 00:49:42;;;;;;;2.67;0.90;;;18.10;69.80;;;;;;5055953;28;20053;-62
2022/07/09 00:52:12;;;;;;;3.05;1.10;;;18.10;69.80;;;;;;5059023;28;20044;-62
2022/07/09 00:54:40;;;;;;;2.90;0.75;;;18.00;69.90;;;;;;5057807;28;20052;-64
2022/07/09 00:57:09;;;;;;;1.45;0.70;;;18.00;70.10;;;;;;5057135;28;20115;-63
2022/07/09 00:59:38;;;;;;;1.77;0.90;;;17.90;70.20;;;;;;5048784;28;20059;-65
2022/07/09 01:02:06;;;;;;;1.58;0.82;;;18.00;70.20;;;;;;5052033;28;20136;-66
2022/07/09 01:04:33;;;;;;;2.67;0.70;;;17.90;70.10;;;;;;5049485;28;20067;-64
2022/07/09 01:07:01;;;;;;;3.65;0.60;;;17.90;70.20;;;;;;5046275;28;20056;-63
2022/07/09 01:09:29;;;;;;;2.45;0.93;;;17.80;70.40;;;;;;5050900;28;20044;-62
2022/07/09 01:11:56;;;;;;;2.22;0.80;;;17.80;70.50;;;;;;5054011;28;20071;-63
2022/07/09 01:14:25;;;;;;;1.63;0.60;;;17.70;70.60;;;;;;5049883;28;20050;-63
2022/07/09 01:16:59;;;;;;;1.35;0.40;;;17.70;70.70;;;;;;5048266;28;21189;-62
2022/07/09 01:19:26;;;;;;;2.85;0.80;;;17.70;71.00;;;;;;5047327;28;20497;-62
2022/07/09 01:21:55;;;;;;;2.38;0.60;;;17.70;71.00;;;;;;5055943;28;20048;-61
2022/07/09 01:24:22;;;;;;;3.67;0.55;;;17.60;71.10;;;;;;5048481;28;20067;-63
2022/07/09 01:26:50;;;;;;;1.55;0.57;;;17.60;71.20;;;;;;5050672;28;20052;-64
2022/07/09 01:29:17;;;;;;;1.88;0.70;;;17.60;71.40;;;;;;5047648;28;20048;-63
2022/07/09 01:31:44;;;;;;;2.13;0.80;;;17.50;71.60;;;;;;5057311;28;20052;-63
2022/07/09 01:34:11;;;;;;;2.17;0.70;;;17.50;71.60;;;;;;5058683;28;20048;-62
2022/07/09 01:36:38;;;;;;;0.77;0.40;;;17.50;71.60;;;;;;5054696;28;20056;-65
2022/07/09 01:39:06;;;;;;;1.35;0.60;;;17.40;71.60;;;;;;5056919;28;20040;-64
2022/07/09 01:41:33;;;;;;;2.60;0.70;;;17.50;71.60;;;;;;5058281;28;20049;-63
2022/07/09 01:44:00;;;;;;;1.55;0.68;;;17.50;71.70;;;;;;5053654;28;20048;-63
2022/07/09 01:46:27;;;;;;;1.33;0.52;;;17.40;71.80;;;;;;5052928;28;21638;-63
2022/07/09 01:48:54;;;;;;;1.25;0.50;;;17.40;71.90;;;;;;5055377;28;20044;-64
2022/07/09 01:51:22;;;;;;;1.38;0.70;;;17.40;72.00;;;;;;5057929;28;20056;-66
2022/07/09 01:53:49;;;;;;;0.77;0.43;;;17.30;72.10;;;;;;5051230;28;20117;-64
2022/07/09 01:56:17;;;;;;;4.97;0.90;;;17.30;72.20;;;;;;5056327;28;20055;-65
2022/07/09 01:58:44;;;;;;;2.17;0.55;;;17.30;72.30;;;;;;5054210;28;20068;-63
2022/07/09 02:01:13;;;;;;;3.28;0.63;;;17.20;72.50;;;;;;5049620;28;20057;-64
2022/07/09 02:03:39;;;;;;;1.00;0.32;;;17.20;72.70;;;;;;5044357;28;20052;-65
2022/07/09 02:06:07;;;;;;;2.88;0.63;;;17.10;72.70;;;;;;5054090;28;20041;-64
2022/07/09 02:08:33;;;;;;;1.58;0.50;;;17.10;72.70;;;;;;5051902;28;20492;-63
2022/07/09 02:11:00;;;;;;;0.75;0.38;;;17.10;72.80;;;;;;5053812;28;20047;-65
2022/07/09 02:13:30;;;;;;;1.23;0.40;;;17.10;72.90;;;;;;5049776;28;20041;-65
2022/07/09 02:15:57;;;;;;;1.23;0.50;;;17.10;72.90;;;;;;5049689;28;20078;-64
2022/07/09 02:18:24;;;;;;;3.47;0.70;;;17.00;72.90;;;;;;5057651;28;20123;-65
2022/07/09 02:20:51;;;;;;;1.13;0.50;;;17.00;73.00;;;;;;5051334;28;20049;-62
2022/07/09 02:23:18;;;;;;;2.72;0.50;;;17.00;73.00;;;;;;5050845;28;20458;-65
2022/07/09 02:25:44;;;;;;;1.77;0.32;;;16.90;73.10;;;;;;5047862;28;20052;-64
2022/07/09 02:28:11;;;;;;;0.80;0.40;;;16.90;73.30;;;;;;5046420;28;20045;-64
2022/07/09 02:30:40;;;;;;;2.83;0.52;;;16.90;73.20;;;;;;5053656;28;20056;-64
2022/07/09 02:33:06;;;;;;;2.15;0.60;;;16.90;73.30;;;;;;5056727;28;20482;-63
2022/07/09 02:35:33;;;;;;;2.50;0.70;;;16.90;73.30;;;;;;5055809;28;20044;-65
2022/07/09 02:38:00;;;;;;;0.60;0.50;;;16.80;73.30;;;;;;5056369;28;20047;-65
2022/07/09 02:40:27;;;;;;;1.65;0.50;;;16.80;73.30;;;;;;5055896;28;20040;-63
2022/07/09 02:42:54;;;;;;;0.93;0.40;;;16.80;73.30;;;;;;5055338;28;20091;-63
2022/07/09 02:45:21;;;;;;;1.65;0.40;;;16.70;73.40;;;;;;5055970;28;20817;-63
2022/07/09 02:47:49;;;;;;;0.90;0.45;;;16.70;73.60;;;;;;5054504;28;20044;-64
2022/07/09 02:50:16;;;;;;;2.03;0.60;;;16.70;73.60;;;;;;5055752;28;20051;-63
2022/07/09 02:52:43;;;;;;;1.55;0.57;;;16.60;73.50;;;;;;5055192;28;20537;-64
2022/07/09 02:55:10;;;;;;;2.70;0.77;;;16.60;73.70;;;;;;5057910;28;20132;-62
2022/07/09 02:57:37;;;;;;;2.22;0.50;;;16.60;73.80;;;;;;5053327;28;20074;-64
2022/07/09 03:00:06;;;;;;;1.35;0.40;;;16.50;73.80;;;;;;5051099;28;20038;-65
2022/07/09 03:02:33;;;;;;;2.05;0.60;;;16.50;73.90;;;;;;5057594;28;20426;-64
2022/07/09 03:05:01;;;;;;;3.60;0.50;;;16.40;74.00;;;;;;5052569;28;20056;-62
2022/07/09 03:07:28;;;;;;;1.85;0.60;;;16.40;74.10;;;;;;5048159;28;20078;-62
2022/07/09 03:09:56;;;;;;;2.58;0.45;;;16.40;74.00;;;;;;5057349;28;20049;-64
2022/07/09 03:12:23;;;;;;;2.47;0.75;;;16.40;74.00;;;;;;5056698;28;20381;-64
2022/07/09 03:14:50;;;;;;;1.42;0.43;;;16.40;74.00;;;;;;5051242;28;20478;-63
2022/07/09 03:17:17;;;;;;;0.85;0.50;;;16.40;74.10;;;;;;5053434;28;20052;-62
2022/07/09 03:19:44;;;;;;;0.95;0.50;;;16.40;74.10;;;;;;5060326;28;20469;-65
2022/07/09 03:22:13;;;;;;;0.93;0.43;;;16.40;74.00;;;;;;5060006;28;20056;-65
2022/07/09 03:24:40;;;;;;;1.48;0.52;;;16.30;74.00;;;;;;5059186;28;20141;-64
2022/07/09 03:27:07;;;;;;;1.40;0.60;;;16.30;74.00;;;;;;5060530;28;20548;-64
2022/07/09 03:29:34;;;;;;;3.35;0.70;;;16.30;74.00;;;;;;5060901;28;20387;-64
2022/07/09 03:32:01;;;;;;;0.75;0.40;;;16.30;74.00;;;;;;5060111;28;20508;-65
2022/07/09 03:34:28;;;;;;;5.55;0.60;;;16.30;74.10;;;;;;5058988;28;20520;-64
2022/07/09 03:36:55;;;;;;;1.10;0.52;;;16.20;74.20;;;;;;5058153;28;20075;-64
2022/07/09 03:39:23;;;;;;;2.63;0.70;;;16.20;74.40;;;;;;5054570;28;20123;-64
2022/07/09 03:41:50;;;;;;;1.73;0.65;;;16.10;74.50;;;;;;5059255;28;20055;-63
2022/07/09 03:44:17;;;;;;;1.77;0.50;;;16.10;74.60;;;;;;5059832;28;20406;-65
2022/07/09 03:46:44;;;;;;;3.10;0.77;;;16.10;74.60;;;;;;5058734;28;20145;-64
2022/07/09 03:49:11;;;;;;;2.25;0.95;;;16.20;74.60;;;;;;5059405;28;20053;-64
2022/07/09 03:51:38;;;;;;;2.67;0.50;;;16.20;74.60;;;;;;5057819;28;20041;-63
2022/07/09 03:54:05;;;;;;;2.55;0.85;;;16.20;74.80;;;;;;5058416;28;20049;-63
2022/07/09 03:56:33;;;;;;;1.67;1.00;;;16.20;75.00;;;;;;5054995;28;20059;-64
2022/07/09 03:59:00;;;;;;;0.65;0.50;;;16.20;75.00;;;;;;5057981;28;20049;-65
2022/07/09 04:01:30;;;;;;;2.55;0.80;;;16.20;75.20;;;;;;5056062;28;20064;-63
2022/07/09 04:03:57;;;;;;;1.75;0.73;;;16.10;75.30;;;;;;5048570;28;20405;-63
2022/07/09 04:06:24;;;;;;;0.65;0.47;;;16.20;75.30;;;;;;5043265;28;20056;-63
2022/07/09 04:08:51;;;;;;;3.25;0.73;;;16.20;75.30;;;;;;5057447;28;20111;-64
2022/07/09 04:11:18;;;;;;;1.45;0.65;;;16.20;75.30;;;;;;5056726;28;20563;-62
2022/07/09 04:13:46;;;;;;;0.98;0.50;;;16.20;75.20;;;;;;5058777;28;20051;-63
2022/07/09 04:16:13;;;;;;;1.58;0.80;;;16.20;75.10;;;;;;5053056;28;20070;-64
2022/07/09 04:18:42;;;;;;;1.73;0.60;;;16.20;75.10;;;;;;5052323;28;20049;-62
2022/07/09 04:21:09;;;;;;;0.80;0.40;;;16.20;75.10;;;;;;5059419;28;20473;-62
2022/07/09 04:23:36;;;;;;;1.77;0.50;;;16.20;75.00;;;;;;5051750;28;20052;-68
2022/07/09 04:26:03;;;;;;;1.17;0.73;;;16.30;75.00;;;;;;5054565;28;20040;-63
2022/07/09 04:28:30;;;;;;;2.15;0.50;;;16.30;74.90;;;;;;5047481;28;20482;-62
2022/07/09 04:30:59;;;;;;;2.55;0.60;;;16.30;74.80;;;;;;5053998;28;20055;-63
2022/07/09 04:33:26;;;;;;;3.47;0.75;;;16.30;74.80;;;;;;5053460;28;20044;-64
2022/07/09 04:35:54;;;;;;;0.95;0.40;;;16.30;74.80;;;;;;5053916;28;20045;-63
2022/07/09 04:38:21;;;;;;;2.85;0.65;;;16.30;74.80;;;;;;5057510;28;20406;-64
2022/07/09 04:40:48;;;;;;;1.55;0.70;;;16.40;74.80;;;;;;5051613;28;20118;-64
2022/07/09 04:43:15;;;;;;;2.50;0.70;;;16.40;74.80;;;;;;5058553;28;20059;-63
2022/07/09 04:45:41;;;;;;;2.08;0.68;;;16.40;74.70;;;;;;5057635;28;20053;-64
2022/07/09 04:48:10;;;;;;;1.55;0.70;;;16.50;74.60;;;;;;5053958;28;20056;-64
2022/07/09 04:50:37;;;;;;;1.75;0.55;;;16.50;74.70;;;;;;5056341;28;20048;-63
2022/07/09 04:53:03;;;;;;;3.13;0.52;;;16.50;74.70;;;;;;5056697;28;20512;-63
2022/07/09 04:55:31;;;;;;;3.28;1.10;;;16.50;74.80;;;;;;5053333;28;20074;-64
2022/07/09 04:57:57;;;;;;;2.42;0.80;;;16.50;74.90;;;;;;5052256;28;20076;-65
2022/07/09 05:00:24;;;;;;;2.70;0.80;;;16.50;74.90;;;;;;5055033;28;20520;-62
2022/07/09 05:02:51;;;;;;;4.05;1.10;;;16.50;74.90;;;;;;5056663;28;20059;-63
2022/07/09 05:05:22;;;;;;;1.05;0.60;;;16.50;75.00;;;;;;5059210;28;20461;-62
2022/07/09 05:07:49;;;;;;;2.00;0.75;;;16.60;74.90;;;;;;5058865;28;20597;-64
2022/07/09 05:10:16;;;;;;;1.90;0.73;;;16.60;75.00;;;;;;5059386;28;20877;-63
2022/07/09 05:12:43;;;;;;;2.65;0.90;;;16.60;75.10;;;;;;5054867;28;20047;-63
2022/07/09 05:15:11;;;;;;;1.63;0.98;;;16.60;75.20;;;;;;5054141;28;20053;-63
2022/07/09 05:17:39;;;;;;;3.10;1.25;;;16.60;75.30;;;;;;5053557;28;20059;-65
2022/07/09 05:20:07;;;;;;;1.90;0.80;;;16.60;75.30;;;;;;5043481;28;20068;-63
2022/07/09 05:22:38;;;;;;;2.28;1.05;;;16.60;75.30;;;;;;5044353;28;20041;-62
2022/07/09 05:25:06;;;;;;;3.08;0.70;;;16.70;75.30;;;;;;5052349;28;20058;-64
2022/07/09 05:27:33;;;;;;;2.38;0.75;;;16.70;75.30;;;;;;5047800;28;20048;-63
2022/07/09 05:30:00;;;;;;;2.72;1.38;;;16.80;75.30;;;;;;5053997;28;20116;-64
2022/07/09 05:32:26;;;;;;;3.25;1.38;;;16.90;75.40;;;;;;5051400;28;20395;-63
2022/07/09 05:34:53;;;;;;;4.82;1.00;;;17.00;75.20;;;;;;5045818;28;20048;-66
2022/07/09 05:37:20;;;;;;;3.88;1.10;;;17.10;75.20;;;;;;5048110;28;20049;-64
2022/07/09 05:39:48;;;;;;;2.10;1.00;;;17.10;75.20;;;;;;5043432;28;20138;-65
2022/07/09 05:42:15;;;;;;;1.70;0.80;;;17.20;75.00;;;;;;5045070;28;20056;-63
2022/07/09 05:44:42;;;;;;;1.90;0.90;;;17.20;75.00;;;;;;5044532;28;20175;-64
2022/07/09 05:47:09;;;;;;;2.42;0.90;;;17.30;74.80;;;;;;5043970;28;20702;-63
2022/07/09 05:49:36;;;;;;;3.13;1.00;;;17.20;74.60;;;;;;5046158;28;20041;-65
2022/07/09 05:52:03;;;;;;;4.00;0.93;;;17.30;74.50;;;;;;5042626;28;20053;-62
2022/07/09 05:54:30;;;;;;;2.63;1.17;;;17.40;74.40;;;;;;5047301;28;20075;-65
2022/07/09 05:56:58;;;;;;;5.80;1.30;;;17.50;74.20;;;;;;5045764;28;20467;-63
2022/07/09 05:59:25;;;;;;;3.30;1.63;;;17.60;74.20;;;;;;5045161;28;20055;-62
2022/07/09 06:01:52;;;;;;;5.13;1.20;;;17.60;74.30;;;;;;5046435;28;20079;-63
2022/07/09 06:04:19;;;;;;;2.78;1.00;;;17.70;74.10;;;;;;5047309;28;20061;-64
2022/07/09 06:06:46;;;;;;;3.53;1.23;;;17.70;74.00;;;;;;5042932;28;20060;-64
2022/07/09 06:09:13;;;;;;;3.22;1.10;;;17.80;74.10;;;;;;5048374;28;20041;-62
2022/07/09 06:11:40;;;;;;;4.13;1.25;;;17.90;73.80;;;;;;5047113;28;20040;-63
2022/07/09 06:14:08;;;;;;;5.43;1.40;;;17.90;73.80;;;;;;5043211;28;20057;-63
2022/07/09 06:16:35;;;;;;;3.42;1.13;;;18.00;73.70;;;;;;5040810;28;20525;-64
2022/07/09 06:19:02;;;;;;;2.78;0.95;;;18.10;73.60;;;;;;5049299;28;20055;-63
2022/07/09 06:21:29;;;;;;;2.03;1.02;;;18.20;73.20;;;;;;5044058;28;20045;-63
2022/07/09 06:23:56;;;;;;;1.88;1.08;;;18.30;73.20;;;;;;5046668;28;20441;-62
2022/07/09 06:26:23;;;;;;;3.65;0.98;;;18.40;73.10;;;;;;5049360;28;20073;-65
2022/07/09 06:28:50;;;;;;;2.38;0.90;;;18.50;73.00;;;;;;5046501;28;20053;-63
2022/07/09 06:31:18;;;;;;;2.88;1.27;;;18.60;72.60;;;;;;5046232;28;20506;-64
2022/07/09 06:33:45;;;;;;;5.68;1.58;;;18.60;72.70;;;;;;5043275;28;20102;-63
2022/07/09 06:36:12;;;;;;;4.20;0.98;;;18.70;72.60;;;;;;5047862;28;20041;-63
2022/07/09 06:41:19;;;;;;;2.58;1.17;;;18.80;72.60;;;;;;5045872;28;20053;-62
2022/07/09 06:43:46;;;;;;;3.55;0.82;;;18.90;72.10;;;;;;5046281;28;20068;-64
2022/07/09 06:46:14;;;;;;;1.42;0.77;;;18.90;71.70;;;;;;5044504;28;20491;-62
2022/07/09 06:48:42;;;;;;;3.03;0.98;;;19.00;72.10;;;;;;5044838;28;20045;-63
2022/07/09 06:51:09;;;;;;;3.47;1.10;;;19.10;71.90;;;;;;5046168;28;20045;-62
2022/07/09 06:53:37;;;;;;;2.17;1.05;;;19.10;71.30;;;;;;5049129;28;20041;-61
2022/07/09 06:56:04;;;;;;;2.03;0.80;;;19.10;71.40;;;;;;5050146;28;24159;-64
2022/07/09 06:58:31;;;;;;;4.82;1.42;;;19.20;71.40;;;;;;5048555;28;20415;-64
2022/07/09 07:00:58;;;;;;;3.90;1.30;;;19.30;71.00;;;;;;5050807;28;20040;-64
2022/07/09 07:03:25;;;;;;;1.98;0.77;;;19.30;70.80;;;;;;5048876;28;20131;-63
2022/07/09 07:05:53;;;;;;;1.83;0.77;;;19.30;70.90;;;;;;5050146;28;20052;-65
2022/07/09 07:08:20;;;;;;;2.83;0.77;;;19.30;70.90;;;;;;5047990;28;20482;-62
2022/07/09 07:10:47;;;;;;;1.70;1.33;;;19.40;70.80;;;;;;5049727;28;20072;-65
2022/07/09 07:13:14;;;;;;;3.03;1.00;;;19.40;70.80;;;;;;5045504;28;20044;-62
2022/07/09 07:15:41;;;;;;;1.30;0.70;;;19.50;70.90;;;;;;5050725;28;20054;-63
2022/07/09 07:18:08;;;;;;;2.72;0.93;;;19.60;70.80;;;;;;5048524;28;20045;-64
2022/07/09 07:20:34;;;;;;;1.83;0.82;;;19.60;70.80;;;;;;5050561;28;20040;-64
2022/07/09 07:23:03;;;;;;;2.55;0.80;;;19.60;70.90;;;;;;5043610;28;20045;-66
2022/07/09 07:25:30;;;;;;;5.20;1.23;;;19.70;70.50;;;;;;5048903;28;20044;-64
2022/07/09 07:27:58;;;;;;;1.95;1.00;;;19.80;70.50;;;;;;5048139;28;23882;-62
2022/07/09 07:30:25;;;;;;;3.67;1.55;;;19.80;70.60;;;;;;5053444;28;20118;-64
2022/07/09 07:32:51;;;;;;;2.60;1.27;;;19.90;70.50;;;;;;5050070;28;20041;-64
2022/07/09 07:35:18;;;;;;;2.83;0.77;;;20.00;70.30;;;;;;5044265;28;20052;-66
2022/07/09 07:37:45;;;;;;;1.60;1.00;;;20.10;70.10;;;;;;5046429;28;20075;-64
2022/07/09 07:40:14;;;;;;;3.17;1.00;;;20.20;69.90;;;;;;5050711;28;20053;-63
2022/07/09 07:42:41;;;;;;;1.55;0.88;;;20.30;69.50;;;;;;5047409;28;20091;-65
2022/07/09 07:45:09;;;;;;;1.92;1.15;;;20.40;69.50;;;;;;5048169;28;20045;-64
2022/07/09 07:47:36;;;;;;;3.40;0.90;;;20.40;69.30;;;;;;5050828;28;20079;-64
2022/07/09 07:50:03;;;;;;;1.98;1.00;;;20.50;69.10;;;;;;5049979;28;20059;-64
2022/07/09 07:52:30;;;;;;;4.15;1.70;;;20.50;68.90;;;;;;5049088;28;20494;-62
2022/07/09 07:54:57;;;;;;;1.77;1.08;;;20.60;68.70;;;;;;5042047;28;20410;-63
2022/07/09 07:57:25;;;;;;;3.28;0.88;;;20.70;68.50;;;;;;5048644;28;20136;-64
2022/07/09 07:59:52;;;;;;;3.45;1.20;;;20.70;68.20;;;;;;5054272;28;20047;-65
2022/07/09 08:02:19;;;;;;;3.83;1.10;;;20.80;67.80;;;;;;5058791;28;20048;-72
2022/07/09 08:04:46;;;;;;;1.70;0.77;;;20.90;68.10;;;;;;5056538;28;20060;-71
2022/07/09 08:07:13;;;;;;;3.28;1.27;;;20.90;67.60;;;;;;5047698;28;20049;-72
2022/07/09 08:09:40;;;;;;;2.25;1.13;;;21.00;67.70;;;;;;5050509;28;20139;-72
2022/07/09 08:12:08;;;;;;;3.15;1.08;;;21.10;67.40;;;;;;5045213;28;20059;-71
2022/07/09 08:14:36;;;;;;;3.75;1.48;;;21.20;67.40;;;;;;5041981;28;20434;-72
2022/07/09 08:17:03;;;;;;;2.17;1.13;;;21.20;67.40;;;;;;5046148;28;20041;-71
2022/07/09 08:19:30;;;;;;;2.70;1.23;;;21.30;67.30;;;;;;5047403;28;20093;-72
2022/07/09 08:21:57;;;;;;;2.22;1.05;;;21.30;67.30;;;;;;5046576;28;20052;-72
2022/07/09 08:24:24;;;;;;;2.60;1.10;;;21.40;66.80;;;;;;5048936;28;20044;-70
2022/07/09 08:26:51;;;;;;;2.60;0.80;;;21.60;66.00;;;;;;5047455;28;20048;-72
2022/07/09 08:29:17;;;;;;;2.53;1.10;;;21.90;65.80;;;;;;5048371;28;20098;-72
2022/07/09 08:31:47;;;;;;;5.28;1.50;;;22.10;65.40;;;;;;5047215;28;20047;-72
2022/07/09 08:34:14;;;;;;;;;;;22.40;65.10;;;;;;5047015;28;20122;-71
2022/07/09 08:36:41;;;;;;;2.83;1.20;;;22.60;64.30;;;;;;5045081;28;19929;-70
2022/07/09 08:39:08;;;;;;;3.38;1.20;;;22.60;63.70;;;;;;5043012;28;20047;-73
2022/07/09 08:41:34;;;;;;;2.03;1.00;;;22.60;63.20;;;;;;5044988;28;20459;-71
2022/07/09 08:44:03;;;;;;;2.47;1.27;;;22.70;63.30;;;;;;5044858;28;20040;-69
2022/07/09 08:46:32;;;;;;;3.22;1.20;;;22.70;63.20;;;;;;5045491;28;20067;-71
2022/07/09 08:49:01;;;;;;;2.83;1.42;;;22.70;62.30;;;;;;5046515;28;20047;-69
2022/07/09 08:51:28;;;;;;;3.10;1.50;;;22.70;61.40;;;;;;5047841;28;20064;-70
2022/07/09 08:53:56;;;;;;;4.03;1.40;;;22.70;61.00;;;;;;5049100;28;20049;-71
2022/07/09 08:56:23;;;;;;;3.53;1.20;;;22.60;60.80;;;;;;5045465;28;20052;-70
2022/07/09 08:58:50;;;;;;;2.53;1.35;;;22.60;61.20;;;;;;5046420;28;20049;-71
2022/07/09 09:01:18;;;;;;;3.30;1.42;;;22.60;61.20;;;;;;5049084;28;20060;-71
2022/07/09 09:03:45;;;;;;;2.63;1.20;;;22.60;61.20;;;;;;5046609;28;20451;-71
2022/07/09 09:06:14;;;;;;;4.82;1.50;;;22.60;60.60;;;;;;5045984;28;20056;-72
2022/07/09 09:08:44;;;;;;;2.95;1.30;;;22.70;60.40;;;;;;5046852;28;20140;-69
2022/07/09 09:11:15;;;;;;;6.00;1.50;;;22.70;60.30;;;;;;5045937;28;20068;-71
2022/07/09 09:13:43;;;;;;;2.80;1.35;;;22.70;60.80;;;;;;5048457;28;20040;-72
2022/07/09 09:16:11;;;;;;;8.00;1.35;;;22.70;60.30;;;;;;5046541;28;20048;-71
2022/07/09 09:18:41;;;;;;;2.25;1.15;;;22.70;60.60;;;;;;5047800;28;20123;-71
2022/07/09 09:21:09;;;;;;;2.10;0.93;;;22.70;60.60;;;;;;5047907;28;20045;-70
2022/07/09 09:23:45;;;;;;;1.73;1.02;;;22.80;60.40;;;;;;5048787;28;20099;-70
2022/07/09 09:26:13;;;;;;;2.45;0.82;;;23.10;60.20;;;;;;5049722;28;20048;-70
2022/07/09 09:28:48;;;;;;;3.25;1.20;;;23.30;59.60;;;;;;5047025;28;20525;-70
2022/07/09 09:31:26;;;;;;;2.90;1.10;;;23.50;59.80;;;;;;5046489;28;20106;-69
2022/07/09 09:33:54;;;;;;;3.92;1.27;;;23.80;58.90;;;;;;5046352;28;20053;-69
2022/07/09 09:36:29;;;;;;;2.23;1.10;;;23.90;58.50;;;;;;5045992;28;20140;-67
2022/07/09 09:39:11;;;;;;;3.38;1.40;;;24.00;58.10;;;;;;5045503;28;20494;-71
2022/07/09 09:41:39;;;;;;;3.08;1.23;;;24.00;57.50;;;;;;5047230;28;20605;-69
2022/07/09 09:44:09;;;;;;;1.92;0.98;;;24.00;56.80;;;;;;5049294;28;20127;-70
2022/07/09 09:46:37;;;;;;;3.60;1.17;;;24.00;57.10;;;;;;5051286;28;20052;-70
2022/07/09 09:49:07;;;;;;;5.50;2.25;;;23.90;57.10;;;;;;5054112;28;20049;-70
2022/07/09 09:51:36;;;;;;;7.35;2.05;;;23.90;56.90;;;;;;5054621;28;20076;-71
2022/07/09 09:54:05;;;;;;;3.70;2.00;;;23.90;56.80;;;;;;5053905;28;20052;-71
2022/07/09 09:56:33;;;;;;;3.90;1.73;;;23.90;56.20;;;;;;5063567;28;20132;-70
2022/07/09 09:59:01;;;;;;;3.53;1.65;;;23.90;56.40;;;;;;5046037;28;20127;-70
2022/07/09 10:01:30;;;;;;;4.90;1.45;;;23.90;55.70;;;;;;5047873;28;20060;-70
2022/07/09 10:03:57;;;;;;;3.00;1.40;;;24.10;55.90;;;;;;5048348;28;20140;-71
2022/07/09 10:06:26;;;;;;;4.07;1.33;;;24.10;56.00;;;;;;5049662;28;20049;-70
2022/07/09 10:08:54;;;;;;;6.32;1.60;;;24.40;55.40;;;;;;5044168;28;20402;-69
2022/07/09 10:11:23;;;;;;;3.80;1.77;;;24.50;55.40;;;;;;5052312;28;20045;-70
2022/07/09 10:13:54;;;;;;;2.30;1.38;;;24.50;55.40;;;;;;5055334;28;20060;-68
2022/07/09 10:16:36;;;;;;;3.70;1.50;;;24.50;55.10;;;;;;5054286;28;20041;-70
2022/07/09 10:19:03;;;;;;;3.97;1.45;;;24.50;54.50;;;;;;5049231;28;20044;-68
2022/07/09 10:21:38;;;;;;;2.95;1.10;;;24.60;54.30;;;;;;5053133;28;20040;-70
2022/07/09 10:24:06;;;;;;;3.55;1.13;;;24.60;54.20;;;;;;5045739;28;20044;-70
2022/07/09 10:26:47;;;;;;;6.10;1.50;;;24.60;53.60;;;;;;5047645;28;20140;-72
2022/07/09 10:29:22;;;;;;;2.40;1.48;;;24.50;53.70;;;;;;5043968;28;20053;-72
2022/07/09 10:31:49;;;;;;;3.20;1.20;;;24.30;53.70;;;;;;5046995;28;20045;-69
2022/07/09 10:34:37;;;;;;;4.35;1.60;;;24.20;53.50;;;;;;5044321;28;20044;-69
2022/07/09 10:37:06;;;;;;;1.80;1.13;;;24.10;52.80;;;;;;5045179;28;20044;-67
2022/07/09 10:39:33;;;;;;;2.10;1.20;;;24.10;53.40;;;;;;5044847;28;20510;-68
2022/07/09 10:42:06;;;;;;;2.45;1.00;;;24.00;53.60;;;;;;5046009;28;20045;-69
2022/07/09 10:44:37;;;;;;;3.55;1.42;;;24.10;53.70;;;;;;5044577;28;20048;-68
2022/07/09 10:47:05;;;;;;;3.95;1.48;;;24.10;53.70;;;;;;5042577;28;21685;-69
2022/07/09 10:49:35;;;;;;;3.58;1.20;;;24.40;53.50;;;;;;5039378;28;20057;-70
2022/07/09 10:52:03;;;;;;;2.80;1.30;;;24.40;53.50;;;;;;5042300;28;20044;-69
2022/07/09 10:54:30;;;;;;;5.60;1.52;;;24.40;53.50;;;;;;5047678;28;20055;-72
2022/07/09 10:56:58;;;;;;;3.95;1.80;;;24.40;53.60;;;;;;5044674;28;20068;-70
2022/07/09 10:59:26;;;;;;;5.93;1.30;;;24.40;53.30;;;;;;5047983;28;20037;-71
2022/07/09 11:01:55;;;;;;;1.45;1.05;;;24.40;53.20;;;;;;5042716;28;20124;-69
2022/07/09 11:04:29;;;;;;;2.97;1.23;;;24.50;52.90;;;;;;5046708;28;20049;-69
2022/07/09 11:06:57;;;;;;;2.55;1.50;;;24.50;52.70;;;;;;5047444;28;20118;-70
2022/07/09 11:09:26;;;;;;;2.25;1.38;;;24.60;52.20;;;;;;5042407;28;20056;-68
2022/07/09 11:11:53;;;;;;;;;;;24.60;52.20;;;;;;5045123;28;20103;-70
2022/07/09 11:14:20;;;;;;;2.92;1.10;;;24.60;51.40;;;;;;5045346;28;19921;-69
2022/07/09 11:16:56;;;;;;;3.15;1.58;;;24.70;51.90;;;;;;5042785;28;20375;-72
2022/07/09 11:19:23;;;;;;;3.03;1.30;;;24.90;51.80;;;;;;5045932;28;20364;-69
2022/07/09 11:21:50;;;;;;;1.80;1.05;;;25.10;51.60;;;;;;5046912;28;20051;-71
2022/07/09 11:24:19;;;;;;;2.83;1.30;;;25.20;51.70;;;;;;5046582;28;20064;-71
2022/07/09 11:26:47;;;;;;;2.85;1.35;;;25.30;51.20;;;;;;5046119;28;20053;-71
2022/07/09 11:29:17;;;;;;;2.97;1.13;;;25.20;50.90;;;;;;5047886;28;20049;-71
2022/07/09 11:31:48;;;;;;;2.30;1.20;;;25.10;50.50;;;;;;5043421;28;20052;-70
2022/07/09 11:34:17;;;;;;;4.25;1.67;;;25.10;50.70;;;;;;5046683;28;20061;-70
2022/07/09 11:36:46;;;;;;;2.80;1.50;;;25.20;50.60;;;;;;5045326;28;21435;-69
2022/07/09 11:39:23;;;;;;;2.38;1.30;;;25.40;50.50;;;;;;5065548;28;20045;-71
2022/07/09 11:41:50;;;;;;;4.45;1.52;;;25.60;50.40;;;;;;5057254;28;20481;-70
2022/07/09 11:44:22;;;;;;;3.67;1.27;;;25.80;50.40;;;;;;5058261;28;20047;-70
2022/07/09 11:47:05;;;;;;;5.95;3.05;;;25.90;50.00;;;;;;5048498;28;20049;-70
2022/07/09 11:49:38;;;;;;;9.18;4.45;;;25.90;49.90;;;;;;5045384;28;20041;-70
2022/07/09 11:52:16;;;;;;;6.07;2.92;;;25.90;49.60;;;;;;5048304;28;20048;-70
2022/07/09 11:54:55;;;;;;;4.57;2.38;;;26.00;49.80;;;;;;5049466;28;20675;-69
2022/07/09 11:57:23;;;;;;;4.18;2.00;;;26.10;49.60;;;;;;5045862;28;20375;-70
2022/07/09 11:59:50;;;;;;;3.85;1.70;;;26.30;49.50;;;;;;5053520;28;20386;-69
2022/07/09 12:02:24;;;;;;;3.50;1.75;;;26.30;49.10;;;;;;5056884;28;20055;-70
2022/07/09 12:04:53;;;;;;;2.58;1.60;;;26.20;48.50;;;;;;5054945;28;20062;-69
2022/07/09 12:07:20;;;;;;;5.40;1.65;;;26.10;48.40;;;;;;5047898;28;20059;-69
2022/07/09 12:09:47;;;;;;;3.70;1.80;;;26.10;47.90;;;;;;5046742;28;20052;-69
2022/07/09 12:12:14;;;;;;;4.68;1.70;;;26.20;48.00;;;;;;5049266;28;20056;-70
2022/07/09 12:14:40;;;;;;;3.10;1.67;;;26.30;48.00;;;;;;5051267;28;20686;-70
2022/07/09 12:17:18;;;;;;;2.20;1.40;;;26.50;46.60;;;;;;5050935;28;20045;-72
2022/07/09 12:19:46;;;;;;;2.92;1.38;;;26.60;47.00;;;;;;5054584;28;20470;-69
2022/07/09 12:22:14;;;;;;;3.95;1.80;;;26.60;46.80;;;;;;5053785;28;20136;-69
2022/07/09 12:24:42;;;;;;;2.30;1.60;;;26.60;47.00;;;;;;5058413;28;20044;-69
2022/07/09 12:27:09;;;;;;;3.00;1.30;;;26.60;47.00;;;;;;5054645;28;20041;-69
2022/07/09 12:29:36;;;;;;;2.45;1.45;;;26.60;46.80;;;;;;5046547;28;20927;-69
2022/07/09 12:32:06;;;;;;;2.78;1.63;;;26.50;46.70;;;;;;5050488;28;20475;-71
2022/07/09 12:34:32;;;;;;;4.05;1.60;;;26.50;46.50;;;;;;5047468;28;20193;-71
2022/07/09 12:36:59;;;;;;;2.47;1.35;;;26.50;46.20;;;;;;5046749;28;20049;-72
2022/07/09 12:39:28;;;;;;;3.13;1.70;;;26.50;46.40;;;;;;5048366;28;20079;-70
2022/07/09 12:41:55;;;;;;;3.77;1.40;;;26.50;45.40;;;;;;5045418;28;20044;-70
2022/07/09 12:44:22;;;;;;;3.50;1.45;;;26.50;45.60;;;;;;5047799;28;20059;-69
2022/07/09 12:46:49;;;;;;;2.75;1.55;;;26.40;45.60;;;;;;5053115;28;20103;-70
2022/07/09 12:49:16;;;;;;;2.70;1.60;;;26.40;45.80;;;;;;5056655;28;20055;-69
2022/07/09 12:51:43;;;;;;;2.50;1.55;;;26.30;45.90;;;;;;5053946;28;20611;-69
2022/07/09 12:54:09;;;;;;;3.83;1.77;;;26.30;45.90;;;;;;5054514;28;20049;-69